createdAt,value
2019-05-11T00:01:09.576Z,22.70
2019-05-11T00:03:46.958Z,21.70
2019-05-11T00:06:26.764Z,23.03
2019-05-11T00:09:07.298Z,21.43
2019-05-11T00:11:50.467Z,19.67
2019-05-11T00:14:33.842Z,18.63
2019-05-11T00:17:12.203Z,17.00
2019-05-11T00:19:52.925Z,20.47
2019-05-11T00:22:34.077Z,16.07
2019-05-11T00:25:14.142Z,16.03
2019-05-11T00:27:51.854Z,18.37
2019-05-11T00:30:31.123Z,18.77
2019-05-11T00:33:10.992Z,17.27
2019-05-11T00:35:48.770Z,22.30
2019-05-11T00:38:26.903Z,17.03
2019-05-11T00:41:05.779Z,15.30
2019-05-11T00:43:43.494Z,17.27
2019-05-11T00:46:21.854Z,16.00
2019-05-11T00:48:59.741Z,14.70
2019-05-11T00:51:39.494Z,15.40
2019-05-11T00:54:17.706Z,18.07
2019-05-11T00:56:55.112Z,17.03
2019-05-11T00:59:32.684Z,17.03
2019-05-11T01:02:11.939Z,14.63
2019-05-11T01:04:51.044Z,18.70
2019-05-11T01:07:31.456Z,18.83
2019-05-11T01:10:23.198Z,18.77
2019-05-11T01:12:49.693Z,15.80
2019-05-11T01:15:27.152Z,21.20
2019-05-11T01:18:04.666Z,19.63
2019-05-11T01:20:41.906Z,18.10
2019-05-11T01:23:18.991Z,18.67
2019-05-11T01:25:56.159Z,21.47
2019-05-11T01:28:33.246Z,17.80
2019-05-11T01:31:10.331Z,16.03
2019-05-11T01:33:47.441Z,21.20
2019-05-11T01:36:24.602Z,21.47
2019-05-11T01:39:01.701Z,20.90
2019-05-11T01:41:38.935Z,21.63
2019-05-11T01:44:16.055Z,20.00
2019-05-11T01:46:53.239Z,18.17
2019-05-11T01:49:30.319Z,18.70
2019-05-11T01:52:07.497Z,18.80
2019-05-11T01:54:44.576Z,16.93
2019-05-11T01:57:21.727Z,17.13
2019-05-11T01:59:58.817Z,18.97
2019-05-11T02:02:35.971Z,17.60
2019-05-11T02:05:29.956Z,17.40
2019-05-11T02:08:07.129Z,18.40
2019-05-11T02:10:44.212Z,20.20
2019-05-11T02:13:22.632Z,19.33
2019-05-11T02:15:59.712Z,22.53
2019-05-11T02:18:36.999Z,22.47
2019-05-11T02:21:14.097Z,19.87
2019-05-11T02:23:51.238Z,25.87
2019-05-11T02:26:28.342Z,15.87
2019-05-11T02:29:05.477Z,15.90
2019-05-11T02:31:42.666Z,17.37
2019-05-11T02:34:19.870Z,17.27
2019-05-11T02:36:56.961Z,19.57
2019-05-11T02:39:34.111Z,18.43
2019-05-11T02:42:11.235Z,18.00
2019-05-11T02:44:48.351Z,15.63
2019-05-11T02:47:25.483Z,19.53
2019-05-11T02:50:02.580Z,21.80
2019-05-11T02:52:39.806Z,20.23
2019-05-11T02:55:16.871Z,18.40
2019-05-11T02:57:54.112Z,19.57
2019-05-11T03:00:37.085Z,16.63
2019-05-11T03:03:14.274Z,18.30
2019-05-11T03:05:51.455Z,19.93
2019-05-11T03:08:28.638Z,20.17
2019-05-11T03:11:05.749Z,23.53
2019-05-11T03:13:42.809Z,22.73
2019-05-11T03:16:19.946Z,26.43
2019-05-11T03:18:57.065Z,21.97
2019-05-11T03:21:34.200Z,25.63
2019-05-11T03:24:11.221Z,20.83
2019-05-11T03:26:48.360Z,20.03
2019-05-11T03:29:25.502Z,19.40
2019-05-11T03:32:02.744Z,19.57
2019-05-11T03:34:39.822Z,23.57
2019-05-11T03:37:16.870Z,24.30
2019-05-11T03:39:54.038Z,20.57
2019-05-11T03:42:31.150Z,27.87
2019-05-11T03:45:08.338Z,28.33
2019-05-11T03:47:45.444Z,26.60
2019-05-11T03:50:22.584Z,22.40
2019-05-11T03:52:59.701Z,24.23
2019-05-11T03:55:36.849Z,24.13
2019-05-11T03:58:13.942Z,24.47
2019-05-11T04:00:51.088Z,25.20
2019-05-11T04:03:28.188Z,23.17
2019-05-11T04:06:05.779Z,22.00
2019-05-11T04:08:42.893Z,21.33
2019-05-11T04:11:20.064Z,21.87
2019-05-11T04:13:57.287Z,22.60
2019-05-11T04:16:34.458Z,22.10
2019-05-11T04:19:11.607Z,19.20
2019-05-11T04:21:48.775Z,18.70
2019-05-11T04:24:25.865Z,18.73
2019-05-11T04:27:02.971Z,22.33
2019-05-11T04:29:40.158Z,20.43
2019-05-11T04:32:17.275Z,22.10
2019-05-11T04:34:54.391Z,22.03
2019-05-11T04:37:31.511Z,23.40
2019-05-11T04:40:08.789Z,26.20
2019-05-11T04:42:54.833Z,23.73
2019-05-11T04:45:24.982Z,22.50
2019-05-11T04:48:02.144Z,21.03
2019-05-11T04:50:39.279Z,22.70
2019-05-11T04:53:19.517Z,25.07
2019-05-11T04:55:56.731Z,22.47
2019-05-11T04:58:34.903Z,20.40
2019-05-11T05:01:12.036Z,21.17
2019-05-11T05:03:54.447Z,18.77
2019-05-11T05:06:31.353Z,21.13
2019-05-11T05:09:08.514Z,24.33
2019-05-11T05:11:45.618Z,26.50
2019-05-11T05:14:22.755Z,26.83
2019-05-11T05:16:59.959Z,24.80
2019-05-11T05:19:37.083Z,25.67
2019-05-11T05:22:14.250Z,28.17
2019-05-11T05:24:51.882Z,24.90
2019-05-11T05:27:29.041Z,22.50
2019-05-11T05:30:06.664Z,20.53
2019-05-11T05:32:44.011Z,21.97
2019-05-11T05:35:21.158Z,21.33
2019-05-11T05:37:58.294Z,26.07
2019-05-11T05:40:35.469Z,19.20
2019-05-11T05:43:25.582Z,20.63
2019-05-11T05:45:51.998Z,19.63
2019-05-11T05:48:29.071Z,23.87
2019-05-11T05:51:07.050Z,22.20
2019-05-11T05:53:44.139Z,22.30
2019-05-11T05:56:21.314Z,24.13
2019-05-11T05:58:58.412Z,22.40
2019-05-11T06:01:35.597Z,27.80
2019-05-11T06:04:12.751Z,24.43
2019-05-11T06:06:49.947Z,24.83
2019-05-11T06:09:27.061Z,21.17
2019-05-11T06:12:04.252Z,22.90
2019-05-11T06:14:41.626Z,23.07
2019-05-11T06:17:18.790Z,24.93
2019-05-11T06:19:55.875Z,25.57
2019-05-11T06:22:32.999Z,21.60
2019-05-11T06:25:10.095Z,22.17
2019-05-11T06:27:47.256Z,23.87
2019-05-11T06:30:24.362Z,23.17
2019-05-11T06:33:34.987Z,21.07
2019-05-11T06:36:48.218Z,20.37
2019-05-11T06:39:25.633Z,17.27
2019-05-11T06:42:02.793Z,20.97
2019-05-11T06:44:40.027Z,22.60
2019-05-11T06:47:17.123Z,22.57
2019-05-11T06:49:54.292Z,22.50
2019-05-11T06:52:31.790Z,19.80
2019-05-11T06:55:08.961Z,20.37
2019-05-11T06:57:46.042Z,17.43
2019-05-11T07:00:23.248Z,18.33
2019-05-11T07:03:00.369Z,18.90
2019-05-11T07:05:37.611Z,15.70
2019-05-11T07:08:16.227Z,15.43
2019-05-11T07:10:53.443Z,14.70
2019-05-11T07:13:30.542Z,13.70
2019-05-11T07:16:07.715Z,15.17
2019-05-11T07:18:44.842Z,14.57
2019-05-11T07:21:22.030Z,13.60
2019-05-11T07:24:06.025Z,13.75
2019-05-11T07:26:43.283Z,15.98
2019-05-11T07:29:20.856Z,13.03
2019-05-11T07:32:06.268Z,15.43
2019-05-11T07:34:38.742Z,12.80
2019-05-11T07:37:18.486Z,13.62
2019-05-11T07:39:57.951Z,9.85
2019-05-11T07:42:37.671Z,11.73
2019-05-11T07:45:14.494Z,9.15
2019-05-11T07:47:52.211Z,7.15
2019-05-11T07:50:29.946Z,8.63
2019-05-11T07:53:08.272Z,10.10
2019-05-11T07:55:48.505Z,11.57
2019-05-11T07:58:28.497Z,7.03
2019-05-11T08:01:09.610Z,8.83
2019-05-11T08:03:48.258Z,7.67
2019-05-11T08:06:28.525Z,7.67
2019-05-11T08:09:08.381Z,9.08
2019-05-11T08:11:47.790Z,8.88
2019-05-11T08:14:25.598Z,10.00
2019-05-11T08:17:03.335Z,9.60
2019-05-11T08:19:41.005Z,11.60
2019-05-11T08:22:22.715Z,8.80
2019-05-11T08:25:02.227Z,8.25
2019-05-11T08:27:39.979Z,9.58
2019-05-11T08:30:18.825Z,10.32
2019-05-11T08:32:58.272Z,6.80
2019-05-11T08:35:38.795Z,5.15
2019-05-11T08:38:17.902Z,6.70
2019-05-11T08:40:55.949Z,6.97
2019-05-11T08:43:38.694Z,5.20
2019-05-11T08:46:18.507Z,5.30
2019-05-11T08:48:59.319Z,5.80
2019-05-11T08:51:39.019Z,6.20
2019-05-11T08:54:18.358Z,6.28
2019-05-11T08:56:58.528Z,6.35
2019-05-11T08:59:38.108Z,6.30
2019-05-11T09:02:20.922Z,8.40
2019-05-11T09:04:59.059Z,6.20
2019-05-11T09:07:38.382Z,5.95
2019-05-11T09:10:18.386Z,7.00
2019-05-11T09:12:59.055Z,6.83
2019-05-11T09:15:40.795Z,7.20
2019-05-11T09:18:21.970Z,7.03
2019-05-11T09:20:59.702Z,6.37
2019-05-11T09:23:40.577Z,7.55
2019-05-11T09:26:18.179Z,6.30
2019-05-11T09:28:58.048Z,6.00
2019-05-11T09:31:35.358Z,7.22
2019-05-11T09:34:13.075Z,6.58
2019-05-11T09:36:50.773Z,6.87
2019-05-11T09:39:28.475Z,6.87
2019-05-11T09:42:07.749Z,9.05
2019-05-11T09:44:45.634Z,7.78
2019-05-11T09:47:23.366Z,6.95
2019-05-11T09:50:01.079Z,7.47
2019-05-11T09:52:38.783Z,11.28
2019-05-11T09:55:18.808Z,7.75
2019-05-11T09:57:57.830Z,7.80
2019-05-11T10:00:38.862Z,7.35
2019-05-11T10:03:18.150Z,8.48
2019-05-11T10:05:57.819Z,5.65
2019-05-11T10:08:34.884Z,4.92
2019-05-11T10:11:12.619Z,7.95
2019-05-11T10:13:51.244Z,5.12
2019-05-11T10:16:28.969Z,8.55
2019-05-11T10:19:08.526Z,5.87
2019-05-11T10:21:45.993Z,4.67
2019-05-11T10:24:23.670Z,4.80
2019-05-11T10:27:04.173Z,6.90
2019-05-11T10:29:41.814Z,5.65
2019-05-11T10:32:20.671Z,4.28
2019-05-11T10:34:58.472Z,4.75
2019-05-11T10:37:38.706Z,5.33
2019-05-11T10:40:15.561Z,6.70
2019-05-11T10:42:53.259Z,3.27
2019-05-11T10:45:30.930Z,5.45
2019-05-11T10:48:10.286Z,5.28
2019-05-11T10:50:48.503Z,4.50
2019-05-11T10:53:27.823Z,4.60
2019-05-11T10:56:05.684Z,4.53
2019-05-11T10:58:43.452Z,4.62
2019-05-11T11:01:21.101Z,5.75
2019-05-11T11:03:58.847Z,4.15
2019-05-11T11:06:38.483Z,4.53
2019-05-11T11:09:17.733Z,4.83
2019-05-11T11:11:57.895Z,5.85
2019-05-11T11:14:37.541Z,6.45
2019-05-11T11:17:14.889Z,5.85
2019-05-11T11:19:52.636Z,6.92
2019-05-11T11:22:39.346Z,5.33
2019-05-11T11:25:09.643Z,4.85
2019-05-11T11:27:48.649Z,6.30
2019-05-11T11:30:28.566Z,5.60
2019-05-11T11:33:07.995Z,5.87
2019-05-11T11:35:47.603Z,4.72
2019-05-11T11:38:24.631Z,7.25
2019-05-11T11:41:02.361Z,5.62
2019-05-11T11:43:40.018Z,5.33
2019-05-11T11:46:18.814Z,8.00
2019-05-11T11:48:58.115Z,4.72
2019-05-11T11:51:37.788Z,5.65
2019-05-11T11:54:18.153Z,7.08
2019-05-11T11:56:58.781Z,4.70
2019-05-11T11:59:38.448Z,3.58
2019-05-11T12:02:15.457Z,6.40
2019-05-11T12:04:53.189Z,3.67
2019-05-11T12:07:31.043Z,4.85
2019-05-11T12:10:08.823Z,3.35
2019-05-11T12:12:47.600Z,4.67
2019-05-11T12:15:25.414Z,5.50
2019-05-11T12:18:03.112Z,5.45
2019-05-11T12:20:40.857Z,5.40
2019-05-11T12:23:18.547Z,4.20
2019-05-11T12:25:57.984Z,2.77
2019-05-11T12:28:41.959Z,4.55
2019-05-11T12:31:28.867Z,2.60
2019-05-11T12:34:05.749Z,3.72
2019-05-11T12:36:43.405Z,4.37
2019-05-11T12:39:21.141Z,2.20
2019-05-11T12:42:00.237Z,5.35
2019-05-11T12:44:38.704Z,2.60
2019-05-11T12:47:22.135Z,2.05
2019-05-11T12:49:55.800Z,3.22
2019-05-11T12:52:33.463Z,3.17
2019-05-11T12:55:17.725Z,4.15
2019-05-11T12:57:55.011Z,2.30
2019-05-11T13:00:33.397Z,3.60
2019-05-11T13:03:10.508Z,3.35
2019-05-11T13:05:48.586Z,3.45
2019-05-11T13:08:27.781Z,3.83
2019-05-11T13:11:07.354Z,4.05
2019-05-11T13:13:48.387Z,4.72
2019-05-11T13:16:28.618Z,3.08
2019-05-11T13:19:05.648Z,3.95
2019-05-11T13:21:43.477Z,3.12
2019-05-11T13:24:21.127Z,11.40
2019-05-11T13:26:59.782Z,9.33
2019-05-11T13:29:37.906Z,3.60
2019-05-11T13:32:15.612Z,9.25
2019-05-11T13:34:52.738Z,3.22
2019-05-11T13:37:30.505Z,8.68
2019-05-11T13:40:08.206Z,7.40
2019-05-11T13:42:46.023Z,5.37
2019-05-11T13:45:28.048Z,6.35
2019-05-11T13:48:05.064Z,3.33
2019-05-11T13:50:42.185Z,3.65
2019-05-11T13:53:19.358Z,3.27
2019-05-11T13:55:58.738Z,3.02
2019-05-11T13:58:38.005Z,3.80
2019-05-11T14:01:15.420Z,3.92
2019-05-11T14:03:58.373Z,4.45
2019-05-11T14:06:34.788Z,4.73
2019-05-11T14:09:12.514Z,6.00
2019-05-11T14:11:49.621Z,5.97
2019-05-11T14:14:28.737Z,6.62
2019-05-11T14:17:08.281Z,3.12
2019-05-11T14:19:45.040Z,4.97
2019-05-11T14:22:22.174Z,4.00
2019-05-11T14:25:02.300Z,4.97
2019-05-11T14:27:40.069Z,17.30
2019-05-11T14:30:19.090Z,4.47
2019-05-11T14:32:57.945Z,6.57
2019-05-11T14:35:38.279Z,8.00
2019-05-11T14:38:14.916Z,6.23
2019-05-11T14:40:52.632Z,6.80
2019-05-11T14:43:29.791Z,7.57
2019-05-11T14:46:09.076Z,9.07
2019-05-11T14:48:50.402Z,7.57
2019-05-11T14:51:28.241Z,8.00
2019-05-11T14:54:08.149Z,8.30
2019-05-11T14:56:47.966Z,7.73
2019-05-11T14:59:24.366Z,6.87
2019-05-11T15:02:03.183Z,6.80
2019-05-11T15:04:40.278Z,6.53
2019-05-11T15:07:17.843Z,8.60
2019-05-11T15:09:55.143Z,8.20
2019-05-11T15:12:32.349Z,7.30
2019-05-11T15:15:09.538Z,11.03
2019-05-11T15:17:48.885Z,6.33
2019-05-11T15:20:25.431Z,6.40
2019-05-11T15:23:02.583Z,12.80
2019-05-11T15:25:39.688Z,8.47
2019-05-11T15:28:18.123Z,9.83
2019-05-11T15:30:56.088Z,9.17
2019-05-11T15:33:34.032Z,12.77
2019-05-11T15:36:12.108Z,20.63
2019-05-11T15:38:49.814Z,20.83
2019-05-11T15:41:30.433Z,21.70
2019-05-11T15:44:11.825Z,20.47
2019-05-11T15:46:48.700Z,10.47
2019-05-11T15:49:28.486Z,6.87
2019-05-11T15:52:08.032Z,8.13
2019-05-11T15:54:44.470Z,13.47
2019-05-11T15:57:21.607Z,7.60
2019-05-11T15:59:58.891Z,8.23
2019-05-11T16:02:37.836Z,11.83
2019-05-11T16:05:14.765Z,7.67
2019-05-11T16:07:52.214Z,12.47
2019-05-11T16:10:29.321Z,12.27
2019-05-11T16:13:08.938Z,9.50
2019-05-11T16:15:47.698Z,9.90
2019-05-11T16:18:25.186Z,9.80
2019-05-11T16:21:02.312Z,9.70
2019-05-11T16:23:42.067Z,6.90
2019-05-11T16:26:19.173Z,7.07
2019-05-11T16:28:58.183Z,7.60
2019-05-11T16:31:35.027Z,7.20
2019-05-11T16:34:13.266Z,7.63
2019-05-11T16:36:50.475Z,8.77
2019-05-11T16:39:28.067Z,11.80
2019-05-11T16:42:05.354Z,8.47
2019-05-11T16:44:42.451Z,7.17
2019-05-11T16:47:23.066Z,9.70
2019-05-11T16:50:00.249Z,13.07
2019-05-11T16:52:38.679Z,10.30
2019-05-11T16:55:18.083Z,7.27
2019-05-11T16:57:54.916Z,10.40
2019-05-11T17:00:32.068Z,12.40
2019-05-11T17:03:11.584Z,11.57
2019-05-11T17:05:48.785Z,12.23
2019-05-11T17:08:27.699Z,14.37
2019-05-11T17:11:09.268Z,15.10
2019-05-11T17:13:48.382Z,15.37
2019-05-11T17:16:25.659Z,14.67
2019-05-11T17:19:02.767Z,13.93
2019-05-11T17:21:40.438Z,13.67
2019-05-11T17:24:17.555Z,13.07
2019-05-11T17:26:54.755Z,11.93
2019-05-11T17:29:31.846Z,12.73
2019-05-11T17:32:09.050Z,11.47
2019-05-11T17:34:47.913Z,14.33
2019-05-11T17:37:25.101Z,15.80
2019-05-11T17:40:02.235Z,14.13
2019-05-11T17:42:39.420Z,17.30
2019-05-11T17:45:19.003Z,17.63
2019-05-11T17:48:10.335Z,18.13
2019-05-11T17:50:47.449Z,18.87
2019-05-11T17:53:24.609Z,19.30
2019-05-11T17:56:01.721Z,19.07
2019-05-11T17:58:38.913Z,18.77
2019-05-11T18:01:18.475Z,21.60
2019-05-11T18:03:54.870Z,20.60
2019-05-11T18:06:32.239Z,21.13
2019-05-11T18:09:09.456Z,20.83
2019-05-11T18:11:52.559Z,21.70
2019-05-11T18:14:29.941Z,21.53
2019-05-11T18:17:10.624Z,24.43
2019-05-11T18:19:47.739Z,24.17
2019-05-11T18:22:24.902Z,24.47
2019-05-11T18:25:02.013Z,24.90
2019-05-11T18:27:39.195Z,24.90
2019-05-11T18:30:16.394Z,22.17
2019-05-11T18:32:55.206Z,25.10
2019-05-11T18:35:32.440Z,29.93
2019-05-11T18:38:09.642Z,26.20
2019-05-11T18:40:48.625Z,23.87
2019-05-11T18:43:27.826Z,26.07
2019-05-11T18:46:08.511Z,27.67
2019-05-11T18:48:45.853Z,26.23
2019-05-11T18:51:23.004Z,27.27
2019-05-11T18:54:02.520Z,25.07
2019-05-11T18:56:40.895Z,27.03
2019-05-11T18:59:20.168Z,26.17
2019-05-11T19:01:58.667Z,26.77
2019-05-11T19:04:38.041Z,27.73
2019-05-11T19:07:17.252Z,26.07
2019-05-11T19:09:57.587Z,29.47
2019-05-11T19:12:33.828Z,28.53
2019-05-11T19:15:11.003Z,27.27
2019-05-11T19:17:49.042Z,27.90
2019-05-11T19:20:28.305Z,29.03
2019-05-11T19:23:08.201Z,28.53
2019-05-11T19:25:44.175Z,29.77
2019-05-11T19:28:21.368Z,28.17
2019-05-11T19:30:59.221Z,31.33
2019-05-11T19:33:38.149Z,31.07
2019-05-11T19:36:15.462Z,30.40
2019-05-11T19:38:52.561Z,33.93
2019-05-11T19:41:29.795Z,34.00
2019-05-11T19:44:10.923Z,34.83
2019-05-11T19:46:49.137Z,32.90
2019-05-11T19:49:27.903Z,32.07
2019-05-11T19:52:05.302Z,31.47
2019-05-11T19:54:44.160Z,32.90
2019-05-11T19:57:21.504Z,34.47
2019-05-11T19:59:59.811Z,32.73
2019-05-11T20:02:39.084Z,33.93
2019-05-11T20:05:18.174Z,31.53
2019-05-11T20:07:55.725Z,34.10
2019-05-11T20:10:32.928Z,32.50
2019-05-11T20:13:11.707Z,33.17
2019-05-11T20:15:48.907Z,38.70
2019-05-11T20:18:28.630Z,44.83
2019-05-11T20:21:17.670Z,39.33
2019-05-11T20:23:44.107Z,34.43
2019-05-11T20:26:21.771Z,33.53
2019-05-11T20:28:59.865Z,31.07
2019-05-11T20:31:37.148Z,28.70
2019-05-11T20:34:14.985Z,31.70
2019-05-11T20:36:52.206Z,32.57
2019-05-11T20:39:29.414Z,32.53
2019-05-11T20:42:08.658Z,32.67
2019-05-11T20:44:45.481Z,35.90
2019-05-11T20:47:22.777Z,34.73
2019-05-11T20:49:59.916Z,31.40
2019-05-11T20:52:39.031Z,32.27
2019-05-11T20:55:18.139Z,31.90
2019-05-11T20:57:54.755Z,27.63
2019-05-11T21:00:33.647Z,29.00
2019-05-11T21:03:13.937Z,31.07
2019-05-11T21:05:53.755Z,31.73
2019-05-11T21:08:31.283Z,32.77
2019-05-11T21:11:12.109Z,36.67
2019-05-11T21:14:01.690Z,30.53
2019-05-11T21:16:39.089Z,34.63
2019-05-11T21:19:31.818Z,33.87
2019-05-11T21:22:08.892Z,29.97
2019-05-11T21:24:52.033Z,32.83
2019-05-11T21:27:51.738Z,31.67
2019-05-11T21:30:39.922Z,31.20
2019-05-11T21:33:21.326Z,31.13
2019-05-11T21:36:08.838Z,28.47
2019-05-11T21:38:48.389Z,30.80
2019-05-11T21:41:38.692Z,31.23
2019-05-11T21:44:27.739Z,30.00
2019-05-11T21:47:14.930Z,31.60
2019-05-11T21:50:02.070Z,28.43
2019-05-11T21:52:42.150Z,31.47
2019-05-11T21:55:33.353Z,28.63
2019-05-11T21:58:28.515Z,33.10
2019-05-11T22:00:59.797Z,26.17
2019-05-11T22:03:50.416Z,26.80
2019-05-11T22:06:30.669Z,25.33
2019-05-11T22:09:18.739Z,24.37
2019-05-11T22:12:03.774Z,28.43
2019-05-11T22:14:50.349Z,32.53
2019-05-11T22:17:39.837Z,25.90
2019-05-11T22:20:23.934Z,23.20
2019-05-11T22:23:10.489Z,25.83
2019-05-11T22:25:53.106Z,29.20
2019-05-11T22:28:33.969Z,29.13
2019-05-11T22:31:12.760Z,27.43
2019-05-11T22:33:51.634Z,30.03
2019-05-11T22:36:30.736Z,27.10
2019-05-11T22:39:11.162Z,29.70
2019-05-11T22:41:51.051Z,28.00
2019-05-11T22:44:38.502Z,28.67
2019-05-11T22:47:17.933Z,29.83
2019-05-11T22:50:07.888Z,31.63
2019-05-11T22:52:51.415Z,34.03
2019-05-11T22:55:49.140Z,32.43
2019-05-11T22:58:29.985Z,38.97
2019-05-11T23:01:17.969Z,39.07
2019-05-11T23:04:09.513Z,37.73
2019-05-11T23:06:48.037Z,37.87
2019-05-11T23:09:31.654Z,33.97
2019-05-11T23:12:18.045Z,37.60
2019-05-11T23:15:13.618Z,33.77
2019-05-11T23:17:54.090Z,33.57
2019-05-11T23:20:31.506Z,33.93
2019-05-11T23:23:12.198Z,30.43
2019-05-11T23:25:53.966Z,29.27
2019-05-11T23:28:39.312Z,30.20
2019-05-11T23:31:19.521Z,29.60
2019-05-11T23:33:57.886Z,30.23
2019-05-11T23:36:41.823Z,29.40
2019-05-11T23:39:19.174Z,29.60
2019-05-11T23:42:01.160Z,29.00
2019-05-11T23:44:46.485Z,31.87
2019-05-11T23:47:28.876Z,28.17
2019-05-11T23:50:18.534Z,28.00
2019-05-11T23:53:09.208Z,28.17
2019-05-11T23:55:48.389Z,29.93
2019-05-11T23:58:28.133Z,30.57
